Time;durP1;ratioP1;P1;durP2;ratioP2;P2;SDS_P1;SDS_P2;PMS_P1;PMS_P2;Temp;Humidity;BMP_temperature;BMP_pressure;BME280_temperature;BME280_humidity;BME280_pressure;Samples;Min_cycle;Max_cycle;Signal;HPM_P1;HPM_P2
2023/01/02 00:01:51;;;;;;;42.40;31.67;;;14.40;92.20;;;;;;5074482;28;20450;-79
2023/01/02 00:04:17;;;;;;;39.17;28.85;;;14.40;92.30;;;;;;5075525;28;20028;-80
2023/01/02 00:06:43;;;;;;;40.10;30.73;;;14.40;92.30;;;;;;5075267;28;20476;-79
2023/01/02 00:09:08;;;;;;;38.38;29.80;;;14.30;92.30;;;;;;5057205;28;20033;-79
2023/01/02 00:11:35;;;;;;;43.42;29.65;;;14.30;92.30;;;;;;5075436;28;20036;-79
2023/01/02 00:14:00;;;;;;;43.17;28.40;;;14.30;92.40;;;;;;5057351;28;20227;-79
2023/01/02 00:16:26;;;;;;;40.40;29.20;;;14.20;92.40;;;;;;5057805;28;20131;-78
2023/01/02 00:18:52;;;;;;;37.50;27.67;;;14.20;92.30;;;;;;5057652;28;20482;-78
2023/01/02 00:21:18;;;;;;;33.97;26.00;;;14.20;92.50;;;;;;5075046;28;20379;-78
2023/01/02 00:23:43;;;;;;;39.35;26.42;;;14.20;92.50;;;;;;5056911;28;20124;-78
2023/01/02 00:26:09;;;;;;;38.45;26.15;;;14.20;92.50;;;;;;5057277;28;20081;-77
2023/01/02 00:28:36;;;;;;;31.02;24.70;;;14.10;92.60;;;;;;5074105;28;20097;-79
2023/01/02 00:31:09;;;;;;;40.22;26.70;;;14.10;92.60;;;;;;5074918;28;20404;-79
2023/01/02 00:33:36;;;;;;;;;;;14.10;92.60;;;;;;5056953;28;20492;-78
2023/01/02 00:36:10;;;;;;;33.58;25.45;;;14.10;92.50;;;;;;5074767;28;19919;-79
2023/01/02 00:38:36;;;;;;;35.88;25.35;;;14.10;92.60;;;;;;5057126;28;20426;-79
2023/01/02 00:41:02;;;;;;;37.42;26.80;;;14.20;92.50;;;;;;5076509;28;20028;-79
2023/01/02 00:43:28;;;;;;;38.15;25.92;;;14.20;92.60;;;;;;5057634;28;20149;-78
2023/01/02 00:45:54;;;;;;;39.95;26.70;;;14.20;92.50;;;;;;5074753;28;20109;-78
2023/01/02 00:48:21;;;;;;;39.88;26.48;;;14.30;92.50;;;;;;5056501;28;20044;-79
2023/01/02 00:50:47;;;;;;;34.30;26.27;;;14.30;92.40;;;;;;5056386;28;20411;-79
2023/01/02 00:53:13;;;;;;;39.55;25.10;;;14.30;92.40;;;;;;5057644;28;20086;-78
2023/01/02 00:55:38;;;;;;;32.50;24.90;;;14.20;92.30;;;;;;5058572;28;20048;-79
2023/01/02 00:58:04;;;;;;;35.08;25.42;;;14.30;92.30;;;;;;5076846;28;20041;-79
2023/01/02 01:00:30;;;;;;;32.63;24.05;;;14.30;92.40;;;;;;5074761;28;20032;-79
2023/01/02 01:02:59;;;;;;;31.90;23.85;;;14.30;92.30;;;;;;5056419;28;20545;-80
2023/01/02 01:05:26;;;;;;;33.63;24.17;;;14.30;92.30;;;;;;5074573;28;20075;-80
2023/01/02 01:07:54;;;;;;;33.17;23.52;;;14.30;92.30;;;;;;5074340;28;20029;-78
2023/01/02 01:10:20;;;;;;;33.90;23.38;;;14.30;92.40;;;;;;5074443;28;20037;-79
2023/01/02 01:12:46;;;;;;;30.88;22.42;;;14.30;92.40;;;;;;5074073;28;20400;-79
2023/01/02 01:15:12;;;;;;;32.30;23.70;;;14.30;92.30;;;;;;5074065;28;20044;-78
2023/01/02 01:17:38;;;;;;;26.17;21.63;;;14.30;92.30;;;;;;5056515;28;20068;-78
2023/01/02 01:20:05;;;;;;;29.63;22.25;;;14.30;92.60;;;;;;5056140;28;20037;-79
2023/01/02 01:22:31;;;;;;;33.92;23.45;;;14.30;92.30;;;;;;5074603;28;20508;-78
2023/01/02 01:24:57;;;;;;;37.08;23.30;;;14.30;92.30;;;;;;5056063;28;20040;-78
2023/01/02 01:27:22;;;;;;;35.65;23.15;;;14.30;92.30;;;;;;5073776;28;20107;-79
2023/01/02 01:29:48;;;;;;;32.75;22.17;;;14.30;92.40;;;;;;5073904;28;20407;-78
2023/01/02 01:32:14;;;;;;;32.00;23.63;;;14.20;92.30;;;;;;5057031;28;20064;-79
2023/01/02 01:34:40;;;;;;;33.33;23.98;;;14.20;92.30;;;;;;5057030;28;20162;-79
2023/01/02 01:37:05;;;;;;;31.85;24.00;;;14.10;92.30;;;;;;5055923;28;20024;-77
2023/01/02 01:39:31;;;;;;;32.95;23.13;;;14.10;92.40;;;;;;5055969;28;20109;-79
2023/01/02 01:42:00;;;;;;;36.28;25.25;;;14.00;92.30;;;;;;5073726;28;20029;-79
2023/01/02 01:44:38;;;;;;;31.65;24.73;;;14.00;92.30;;;;;;5055475;28;20454;-78
2023/01/02 01:47:04;;;;;;;38.03;25.17;;;13.90;92.30;;;;;;5073406;28;20553;-79
2023/01/02 01:49:30;;;;;;;35.22;27.10;;;13.90;92.40;;;;;;5073477;28;20028;-77
2023/01/02 01:51:56;;;;;;;38.08;26.83;;;13.80;92.30;;;;;;5073305;28;20115;-79
2023/01/02 01:54:30;;;;;;;39.72;28.25;;;13.70;92.30;;;;;;5073275;28;20115;-78
2023/01/02 01:57:01;;;;;;;36.35;26.75;;;13.70;92.40;;;;;;5073289;28;20032;-77
2023/01/02 01:59:27;;;;;;;37.83;26.10;;;13.60;92.40;;;;;;5073466;28;20203;-78
2023/01/02 02:01:53;;;;;;;39.05;28.95;;;13.60;92.40;;;;;;5073260;28;20039;-79
2023/01/02 02:04:23;;;;;;;41.28;28.00;;;13.60;92.50;;;;;;5073250;28;20032;-80
2023/01/02 02:06:50;;;;;;;44.85;27.10;;;13.50;92.50;;;;;;5073405;28;20032;-77
2023/01/02 02:09:22;;;;;;;38.17;26.85;;;13.50;92.50;;;;;;5055022;28;20040;-79
2023/01/02 02:11:48;;;;;;;33.80;26.90;;;13.40;92.40;;;;;;5073001;28;20037;-77
2023/01/02 02:14:14;;;;;;;39.88;27.17;;;13.40;92.40;;;;;;5072615;28;20047;-78
2023/01/02 02:16:46;;;;;;;36.58;27.42;;;13.30;92.50;;;;;;5073249;28;20037;-78
2023/01/02 02:19:26;;;;;;;39.72;27.88;;;13.30;92.50;;;;;;5055149;28;20024;-78
2023/01/02 02:22:39;;;;;;;35.15;27.95;;;13.30;92.60;;;;;;5055379;28;20037;-77
2023/01/02 02:25:26;;;;;;;55.00;36.55;;;13.20;92.60;;;;;;5024629;28;20404;-78
2023/01/02 02:28:29;;;;;;;38.88;28.23;;;13.20;92.70;;;;;;5055209;28;20119;-78
2023/01/02 02:31:15;;;;;;;41.58;28.35;;;13.20;92.70;;;;;;5072805;28;20039;-79
2023/01/02 02:33:50;;;;;;;34.45;27.08;;;13.20;92.60;;;;;;5072599;28;20504;-78
2023/01/02 02:36:25;;;;;;;40.22;29.30;;;13.10;92.60;;;;;;5072548;28;20079;-79
2023/01/02 02:38:54;;;;;;;40.88;28.33;;;13.10;92.60;;;;;;5072683;28;20060;-78
2023/01/02 02:41:55;;;;;;;41.70;30.13;;;13.10;92.90;;;;;;5072751;28;20116;-78
2023/01/02 02:44:35;;;;;;;41.58;30.20;;;13.10;92.70;;;;;;5054622;28;20135;-79
2023/01/02 02:47:15;;;;;;;40.08;30.83;;;13.00;92.70;;;;;;5054565;28;20100;-78
2023/01/02 02:49:50;;;;;;;42.92;30.55;;;13.00;92.60;;;;;;5072217;28;20032;-76
2023/01/02 02:52:25;;;;;;;42.05;31.80;;;13.00;92.80;;;;;;5054372;28;20119;-78
2023/01/02 02:55:07;;;;;;;42.67;29.23;;;12.90;92.70;;;;;;5054250;28;20043;-80
2023/01/02 02:57:34;;;;;;;45.20;30.50;;;12.90;92.70;;;;;;5072273;28;20487;-78
2023/01/02 03:00:05;;;;;;;41.80;30.65;;;12.90;92.70;;;;;;5072679;28;20037;-78
2023/01/02 03:02:31;;;;;;;42.78;30.02;;;12.90;92.70;;;;;;5055557;28;20059;-79
2023/01/02 03:05:01;;;;;;;39.42;29.58;;;12.80;92.80;;;;;;5057988;28;20408;-78
2023/01/02 03:07:45;;;;;;;39.33;30.05;;;12.80;92.80;;;;;;5059176;28;20025;-78
2023/01/02 03:10:15;;;;;;;;;;;12.80;92.80;;;;;;5073852;28;20043;-78
2023/01/02 03:13:13;;;;;;;41.80;30.48;;;12.80;93.10;;;;;;5054480;28;20310;-78
2023/01/02 03:16:10;;;;;;;35.72;29.33;;;12.80;92.90;;;;;;5072854;28;20046;-78
2023/01/02 03:18:42;;;;;;;40.63;27.00;;;12.80;92.90;;;;;;5054486;28;20040;-77
2023/01/02 03:21:11;;;;;;;40.20;28.92;;;12.70;92.90;;;;;;5072106;28;20040;-77
2023/01/02 03:23:47;;;;;;;40.30;30.25;;;12.70;92.80;;;;;;5054014;28;20024;-78
2023/01/02 03:26:16;;;;;;;40.55;28.45;;;12.60;92.80;;;;;;5053987;28;20035;-78
2023/01/02 03:28:45;;;;;;;35.85;27.45;;;12.60;93.00;;;;;;5053948;28;20507;-78
2023/01/02 03:31:17;;;;;;;34.90;26.88;;;12.50;92.90;;;;;;5053979;28;20047;-78
2023/01/02 03:33:49;;;;;;;33.38;26.95;;;12.50;93.00;;;;;;5071979;28;20028;-78
2023/01/02 03:36:20;;;;;;;35.83;27.38;;;12.50;93.00;;;;;;5071944;28;20514;-79
2023/01/02 03:39:03;;;;;;;38.15;27.33;;;12.50;93.10;;;;;;5071843;28;20029;-79
2023/01/02 03:41:36;;;;;;;37.22;26.83;;;12.50;92.80;;;;;;5053891;28;20459;-78
2023/01/02 03:44:06;;;;;;;32.92;26.30;;;12.50;93.00;;;;;;5070582;28;20044;-78
2023/01/02 03:46:47;;;;;;;35.22;25.58;;;12.50;93.00;;;;;;5053999;28;20060;-77
2023/01/02 03:49:18;;;;;;;38.05;26.40;;;12.50;92.80;;;;;;5071872;28;20036;-78
2023/01/02 03:51:43;;;;;;;34.25;25.55;;;12.50;93.00;;;;;;5071581;28;20033;-77
2023/01/02 03:54:10;;;;;;;30.83;24.05;;;12.40;92.90;;;;;;5053998;28;20329;-78
2023/01/02 03:56:35;;;;;;;32.95;24.17;;;12.40;93.00;;;;;;5071831;28;20534;-78
2023/01/02 03:59:27;;;;;;;31.58;23.67;;;12.40;92.90;;;;;;5072141;28;20025;-78
2023/01/02 04:02:14;;;;;;;29.17;22.98;;;12.30;93.00;;;;;;5043621;28;20081;-78
2023/01/02 04:04:53;;;;;;;30.05;22.77;;;12.40;92.70;;;;;;5077200;28;20086;-78
2023/01/02 04:07:54;;;;;;;27.95;21.77;;;12.30;92.90;;;;;;5076167;28;20044;-79
2023/01/02 04:10:21;;;;;;;28.85;22.00;;;12.30;92.60;;;;;;5068414;28;20041;-78
2023/01/02 04:12:51;;;;;;;28.73;21.05;;;12.30;92.90;;;;;;5074803;28;20024;-77
2023/01/02 04:15:20;;;;;;;27.58;21.33;;;12.20;92.60;;;;;;5057255;28;20416;-78
2023/01/02 04:18:06;;;;;;;28.42;21.98;;;12.20;92.70;;;;;;5056990;28;20028;-78
2023/01/02 04:20:40;;;;;;;29.63;21.13;;;12.20;92.60;;;;;;5057342;28;20069;-79
2023/01/02 04:23:11;;;;;;;28.42;20.73;;;12.10;92.70;;;;;;5057464;28;20506;-78
2023/01/02 04:25:48;;;;;;;25.40;20.15;;;12.10;92.70;;;;;;5075274;28;20032;-78
2023/01/02 04:28:24;;;;;;;24.95;19.85;;;12.10;92.80;;;;;;5075443;28;20035;-79
2023/01/02 04:31:08;;;;;;;25.63;19.88;;;12.10;92.80;;;;;;5056926;28;20035;-78
2023/01/02 04:33:42;;;;;;;28.25;19.52;;;12.10;92.50;;;;;;5057232;28;20493;-78
2023/01/02 04:36:12;;;;;;;23.67;18.75;;;12.00;92.70;;;;;;5057002;28;20045;-78
2023/01/02 04:38:40;;;;;;;24.77;18.75;;;12.00;92.60;;;;;;5056739;28;20145;-77
2023/01/02 04:41:06;;;;;;;25.08;17.83;;;12.00;92.60;;;;;;5074906;28;20584;-80
2023/01/02 04:43:32;;;;;;;25.63;17.85;;;12.00;92.60;;;;;;5056603;28;20234;-79
2023/01/02 04:45:58;;;;;;;26.25;18.25;;;11.90;92.60;;;;;;5074651;28;20024;-79
2023/01/02 04:48:24;;;;;;;24.35;18.48;;;11.80;92.50;;;;;;5074619;28;20468;-79
2023/01/02 04:50:52;;;;;;;25.45;17.67;;;11.80;92.60;;;;;;5056587;28;20037;-78
2023/01/02 04:53:18;;;;;;;23.58;17.98;;;11.80;92.70;;;;;;5074548;28;20123;-78
2023/01/02 04:55:44;;;;;;;24.42;17.38;;;11.80;92.60;;;;;;5056666;28;20547;-79
2023/01/02 04:58:09;;;;;;;23.17;16.85;;;11.80;92.60;;;;;;5074728;28;20476;-78
2023/01/02 05:00:35;;;;;;;26.08;16.90;;;11.80;92.60;;;;;;5057314;28;20128;-78
2023/01/02 05:03:02;;;;;;;24.48;16.02;;;11.80;92.60;;;;;;5077559;28;20043;-78
2023/01/02 05:05:28;;;;;;;21.77;16.30;;;11.80;92.60;;;;;;5057226;28;20036;-78
2023/01/02 05:07:53;;;;;;;20.38;16.58;;;11.80;92.40;;;;;;5074624;28;20086;-79
2023/01/02 05:10:19;;;;;;;18.98;15.73;;;11.90;92.50;;;;;;5056887;28;20037;-78
2023/01/02 05:12:45;;;;;;;20.45;15.57;;;11.80;92.40;;;;;;5058556;28;20048;-78
2023/01/02 05:15:11;;;;;;;24.42;16.35;;;11.80;92.40;;;;;;5075681;28;20086;-78
2023/01/02 05:17:38;;;;;;;20.42;15.20;;;11.80;92.50;;;;;;5056849;28;20029;-79
2023/01/02 05:20:06;;;;;;;18.90;14.68;;;11.90;92.60;;;;;;5074420;28;20566;-77
2023/01/02 05:25:17;;;;;;;21.48;15.90;;;11.90;92.30;;;;;;5074365;28;20135;-79
2023/01/02 05:27:42;;;;;;;21.80;14.65;;;11.90;92.70;;;;;;5074135;28;20074;-79
2023/01/02 05:30:09;;;;;;;17.67;13.85;;;11.90;92.40;;;;;;5072687;28;20043;-79
2023/01/02 05:32:34;;;;;;;21.15;15.18;;;11.90;92.40;;;;;;5073721;28;20097;-79
2023/01/02 05:35:00;;;;;;;21.02;14.95;;;11.90;92.30;;;;;;5056000;28;20127;-79
2023/01/02 05:37:28;;;;;;;22.20;14.30;;;11.80;92.20;;;;;;5073720;28;20396;-77
2023/01/02 05:39:53;;;;;;;21.23;15.20;;;11.80;92.30;;;;;;5073756;28;20033;-78
2023/01/02 05:42:19;;;;;;;20.38;15.20;;;11.80;92.40;;;;;;5073735;28;20035;-78
2023/01/02 05:44:45;;;;;;;17.50;14.30;;;11.80;92.30;;;;;;5073768;28;20131;-78
2023/01/02 05:47:11;;;;;;;21.05;15.68;;;11.80;92.20;;;;;;5056033;28;20086;-78
2023/01/02 05:49:36;;;;;;;17.65;14.50;;;11.80;92.30;;;;;;5055975;28;20468;-78
2023/01/02 05:52:02;;;;;;;19.98;14.88;;;11.80;92.40;;;;;;5056153;28;20227;-79
2023/01/02 05:54:28;;;;;;;21.30;15.18;;;11.80;92.60;;;;;;5076335;28;20492;-79
2023/01/02 05:56:55;;;;;;;20.40;15.05;;;11.80;92.20;;;;;;5074018;28;20082;-78
2023/01/02 05:59:21;;;;;;;23.73;14.93;;;11.80;92.30;;;;;;5073484;28;20116;-79
2023/01/02 06:01:46;;;;;;;18.50;14.82;;;11.80;92.30;;;;;;5073699;28;20061;-79
2023/01/02 06:04:12;;;;;;;22.10;15.30;;;11.80;92.20;;;;;;5055220;28;20068;-78
2023/01/02 06:06:39;;;;;;;20.73;15.07;;;11.90;92.20;;;;;;5073314;28;20040;-78
2023/01/02 06:09:06;;;;;;;22.02;16.00;;;11.90;92.20;;;;;;5056620;28;20028;-78
2023/01/02 06:11:33;;;;;;;20.73;15.25;;;11.90;92.10;;;;;;5055717;28;20460;-77
2023/01/02 06:13:59;;;;;;;18.95;14.73;;;11.90;92.20;;;;;;5073300;28;20043;-78
2023/01/02 06:16:25;;;;;;;21.70;15.93;;;11.90;92.10;;;;;;5055050;28;20036;-78
2023/01/02 06:18:51;;;;;;;21.00;14.77;;;11.90;92.10;;;;;;5055183;28;20086;-78
2023/01/02 06:21:19;;;;;;;20.45;15.63;;;11.90;92.00;;;;;;5072922;28;20503;-77
2023/01/02 06:23:45;;;;;;;21.05;15.20;;;12.00;92.10;;;;;;5055133;28;20044;-79
2023/01/02 06:26:16;;;;;;;21.98;15.68;;;12.00;91.90;;;;;;5054345;28;20025;-79
2023/01/02 06:28:43;;;;;;;18.77;15.05;;;12.00;92.00;;;;;;5054794;28;20058;-78
2023/01/02 06:31:15;;;;;;;20.33;14.23;;;12.00;92.10;;;;;;5054767;28;20039;-77
2023/01/02 06:33:41;;;;;;;19.95;14.65;;;12.00;91.70;;;;;;5054925;28;20079;-78
2023/01/02 06:36:15;;;;;;;22.33;13.73;;;12.00;91.90;;;;;;5055129;28;20541;-78
2023/01/02 06:38:40;;;;;;;19.55;14.55;;;12.00;91.90;;;;;;5055370;28;20037;-78
2023/01/02 06:41:07;;;;;;;22.67;14.88;;;12.10;91.90;;;;;;5055835;28;20037;-79
2023/01/02 06:43:35;;;;;;;20.25;14.50;;;12.10;91.80;;;;;;5072998;28;20036;-79
2023/01/02 06:46:05;;;;;;;19.02;13.50;;;12.10;91.80;;;;;;5055473;28;20035;-77
2023/01/02 06:48:32;;;;;;;20.40;14.10;;;12.20;91.80;;;;;;5055247;28;20396;-77
2023/01/02 06:50:58;;;;;;;18.85;14.02;;;12.20;91.70;;;;;;5054830;28;20037;-79
2023/01/02 06:53:25;;;;;;;19.10;14.02;;;12.20;91.50;;;;;;5071141;28;20439;-79
2023/01/02 06:55:57;;;;;;;24.52;14.43;;;12.20;91.50;;;;;;5072100;28;20047;-79
2023/01/02 06:58:24;;;;;;;19.77;14.10;;;12.10;91.30;;;;;;5054500;28;20025;-80
2023/01/02 07:00:51;;;;;;;21.08;14.07;;;12.10;91.50;;;;;;5072400;28;20068;-79
2023/01/02 07:03:17;;;;;;;17.65;13.93;;;12.10;91.50;;;;;;5072280;28;20020;-79
2023/01/02 07:05:44;;;;;;;20.95;13.43;;;12.10;91.40;;;;;;5054099;28;20116;-78
2023/01/02 07:08:10;;;;;;;22.08;13.25;;;12.10;91.50;;;;;;5072229;28;20032;-78
2023/01/02 07:10:36;;;;;;;21.13;13.75;;;12.00;91.50;;;;;;5072267;28;20037;-78
2023/01/02 07:13:02;;;;;;;22.33;14.00;;;12.00;91.50;;;;;;5072118;28;20029;-78
2023/01/02 07:15:28;;;;;;;21.80;14.55;;;12.00;91.60;;;;;;5053965;28;20067;-78
2023/01/02 07:17:54;;;;;;;20.48;14.10;;;11.90;91.50;;;;;;5053775;28;20056;-79
2023/01/02 07:20:20;;;;;;;20.40;14.25;;;11.90;91.40;;;;;;5073239;28;20129;-79
2023/01/02 07:22:50;;;;;;;21.15;13.70;;;11.90;91.40;;;;;;5055871;28;20037;-80
2023/01/02 07:25:17;;;;;;;17.40;13.48;;;11.90;91.50;;;;;;5072008;28;20035;-78
2023/01/02 07:27:43;;;;;;;21.83;13.80;;;11.90;91.40;;;;;;5072405;28;20024;-79
2023/01/02 07:30:09;;;;;;;19.23;14.18;;;12.00;91.40;;;;;;5055936;28;20119;-78
2023/01/02 07:32:35;;;;;;;19.10;14.38;;;11.90;91.40;;;;;;5071615;28;20098;-79
2023/01/02 07:35:01;;;;;;;18.65;13.98;;;11.90;91.40;;;;;;5071590;28;20045;-78
2023/01/02 07:37:26;;;;;;;22.33;14.45;;;12.00;91.40;;;;;;5056683;28;20082;-78
2023/01/02 07:39:52;;;;;;;21.45;14.13;;;12.00;91.20;;;;;;5058419;28;20078;-78
2023/01/02 07:42:18;;;;;;;19.05;14.18;;;12.10;91.40;;;;;;5057771;28;20028;-78
2023/01/02 07:44:43;;;;;;;19.10;13.90;;;12.20;91.30;;;;;;5076103;28;20156;-78
2023/01/02 07:47:09;;;;;;;21.88;16.70;;;12.30;91.10;;;;;;5076195;28;20068;-79
2023/01/02 07:49:35;;;;;;;20.77;13.88;;;12.30;91.30;;;;;;5076049;28;20511;-79
2023/01/02 07:52:01;;;;;;;17.05;13.48;;;12.40;91.20;;;;;;5074378;28;20033;-78
2023/01/02 07:54:26;;;;;;;18.17;13.27;;;12.40;91.10;;;;;;5057591;28;20025;-78
2023/01/02 07:56:52;;;;;;;23.30;14.05;;;12.50;90.90;;;;;;5057627;28;20040;-79
2023/01/02 07:59:18;;;;;;;20.05;14.07;;;12.50;91.00;;;;;;5057060;28;20032;-78
2023/01/02 08:01:44;;;;;;;21.67;14.40;;;12.50;90.80;;;;;;5075018;28;20503;-79
2023/01/02 08:04:09;;;;;;;21.08;13.40;;;12.50;90.90;;;;;;5057473;28;20029;-80
2023/01/02 08:06:38;;;;;;;18.48;13.35;;;12.60;90.90;;;;;;5057543;28;20036;-78
2023/01/02 08:09:04;;;;;;;22.00;14.15;;;12.50;90.60;;;;;;5056902;28;20507;-78
2023/01/02 08:11:30;;;;;;;19.25;14.48;;;12.50;91.00;;;;;;5056984;28;20052;-79
2023/01/02 08:13:56;;;;;;;19.00;14.38;;;12.50;90.80;;;;;;5076093;28;20071;-80
2023/01/02 08:16:22;;;;;;;20.77;14.60;;;12.50;90.70;;;;;;5075191;28;20040;-79
2023/01/02 08:18:51;;;;;;;22.15;15.68;;;12.50;90.80;;;;;;5073750;28;20064;-79
2023/01/02 08:21:17;;;;;;;22.13;16.73;;;12.60;90.80;;;;;;5056912;28;20127;-79
2023/01/02 08:23:42;;;;;;;20.58;16.48;;;12.60;90.80;;;;;;5074897;28;20052;-79
2023/01/02 08:26:10;;;;;;;21.75;15.07;;;12.70;90.90;;;;;;5057406;28;20349;-79
2023/01/02 08:28:37;;;;;;;19.77;15.65;;;12.80;90.80;;;;;;5057558;28;20496;-80
2023/01/02 08:31:18;;;;;;;23.35;15.88;;;12.80;90.70;;;;;;5076629;28;20021;-80
2023/01/02 08:33:44;;;;;;;22.25;15.98;;;12.80;90.80;;;;;;5076213;28;20040;-80
2023/01/02 08:36:11;;;;;;;27.10;16.08;;;12.80;90.70;;;;;;5074832;28;20124;-80
2023/01/02 08:38:37;;;;;;;23.27;16.70;;;12.90;90.70;;;;;;5074705;28;20071;-78
2023/01/02 08:41:04;;;;;;;21.60;16.27;;;12.90;90.60;;;;;;5056794;28;20048;-79
2023/01/02 08:43:33;;;;;;;20.88;15.50;;;13.00;90.60;;;;;;5074518;28;20024;-80
2023/01/02 08:46:04;;;;;;;25.52;16.08;;;13.00;90.60;;;;;;5056655;28;20127;-79
2023/01/02 08:48:30;;;;;;;21.05;16.00;;;13.10;90.60;;;;;;5073560;28;20076;-79
2023/01/02 08:50:56;;;;;;;23.90;15.38;;;13.10;90.50;;;;;;5056786;28;20056;-79
2023/01/02 08:53:21;;;;;;;26.67;16.38;;;13.10;90.60;;;;;;5074769;28;20033;-80
2023/01/02 08:55:47;;;;;;;28.30;17.15;;;13.10;90.50;;;;;;5074511;28;20522;-80
2023/01/02 08:58:13;;;;;;;23.63;18.00;;;13.10;90.60;;;;;;5074835;28;20032;-79
2023/01/02 09:00:39;;;;;;;30.13;18.15;;;13.10;90.50;;;;;;5056082;28;20036;-78
2023/01/02 09:03:05;;;;;;;25.83;16.95;;;13.20;90.60;;;;;;5074428;28;20494;-79
2023/01/02 09:05:30;;;;;;;27.80;17.60;;;13.30;90.50;;;;;;5074184;28;20041;-79
2023/01/02 09:07:57;;;;;;;24.08;17.63;;;13.30;90.40;;;;;;5074404;28;20110;-79
2023/01/02 09:10:23;;;;;;;25.23;18.27;;;13.40;90.50;;;;;;5055931;28;20036;-80
2023/01/02 09:12:49;;;;;;;25.65;17.83;;;13.50;90.50;;;;;;5073959;28;20480;-81
2023/01/02 09:15:14;;;;;;;25.63;16.88;;;13.50;90.10;;;;;;5056112;28;20044;-80
2023/01/02 09:17:40;;;;;;;23.75;17.58;;;13.50;90.20;;;;;;5055732;28;20073;-78
2023/01/02 09:20:06;;;;;;;25.80;18.02;;;13.50;90.30;;;;;;5075073;28;20080;-79
2023/01/02 09:22:32;;;;;;;26.10;18.73;;;13.60;90.30;;;;;;5057980;28;20028;-79
2023/01/02 09:24:57;;;;;;;29.83;18.85;;;13.70;90.30;;;;;;5081058;28;20032;-78
2023/01/02 09:27:23;;;;;;;25.73;17.60;;;13.80;90.20;;;;;;5077879;28;20024;-80
2023/01/02 09:29:49;;;;;;;23.95;18.10;;;13.70;90.00;;;;;;5074020;28;20439;-80
2023/01/02 09:32:15;;;;;;;24.55;17.88;;;13.70;90.20;;;;;;5073845;28;20031;-78
2023/01/02 09:34:41;;;;;;;27.02;18.55;;;13.60;90.30;;;;;;5073140;28;20408;-79
2023/01/02 09:37:06;;;;;;;29.33;17.60;;;13.70;90.30;;;;;;5055319;28;20116;-80
2023/01/02 09:39:32;;;;;;;26.17;18.20;;;13.80;90.30;;;;;;5055509;28;20032;-79
2023/01/02 09:42:00;;;;;;;27.73;19.08;;;13.80;90.30;;;;;;5073472;28;20522;-81
2023/01/02 09:44:41;;;;;;;30.20;19.25;;;13.90;90.30;;;;;;5055060;28;20075;-80
2023/01/02 09:47:15;;;;;;;29.65;18.77;;;13.90;90.10;;;;;;5054895;28;20036;-78
2023/01/02 09:49:46;;;;;;;29.38;19.40;;;14.00;90.40;;;;;;5055288;28;20044;-79
2023/01/02 09:52:20;;;;;;;27.63;19.58;;;14.00;90.30;;;;;;5073311;28;20473;-79
2023/01/02 09:54:46;;;;;;;33.42;18.52;;;14.10;90.30;;;;;;5054803;28;20052;-81
2023/01/02 09:57:27;;;;;;;26.17;18.92;;;14.10;90.20;;;;;;5055290;28;20024;-78
2023/01/02 10:00:02;;;;;;;26.88;19.30;;;14.10;90.00;;;;;;5072736;28;20024;-81
2023/01/02 10:02:49;;;;;;;34.60;20.45;;;14.20;90.00;;;;;;5073784;28;20036;-79
2023/01/02 10:05:21;;;;;;;36.35;18.92;;;14.20;89.90;;;;;;5073625;28;20040;-80
2023/01/02 10:07:54;;;;;;;25.35;18.70;;;14.20;90.20;;;;;;5054676;28;20033;-80
2023/01/02 10:10:42;;;;;;;26.05;18.13;;;14.20;90.30;;;;;;5072635;28;20032;-80
2023/01/02 10:13:28;;;;;;;23.15;17.77;;;14.30;90.30;;;;;;5054926;28;20040;-79
2023/01/02 10:15:58;;;;;;;28.80;17.60;;;14.30;90.00;;;;;;5055577;28;20051;-80
2023/01/02 10:18:46;;;;;;;30.98;17.80;;;14.30;90.20;;;;;;5074744;28;20028;-78
2023/01/02 10:21:22;;;;;;;27.10;17.85;;;14.40;90.30;;;;;;5057508;28;20078;-77
2023/01/02 10:23:53;;;;;;;28.20;18.00;;;14.50;90.20;;;;;;5072474;28;20044;-79
2023/01/02 10:26:22;;;;;;;26.20;16.60;;;14.50;90.10;;;;;;5073314;28;20110;-79
2023/01/02 10:29:05;;;;;;;24.75;19.20;;;14.60;90.10;;;;;;5072960;28;20064;-79
2023/01/02 10:31:43;;;;;;;30.45;18.88;;;14.60;89.60;;;;;;5072453;28;20497;-79
2023/01/02 10:34:16;;;;;;;25.58;17.45;;;14.60;89.70;;;;;;5072405;28;20043;-80
2023/01/02 10:36:44;;;;;;;25.23;17.90;;;14.70;90.20;;;;;;5054755;28;20456;-81
2023/01/02 10:39:19;;;;;;;25.17;17.42;;;14.70;90.10;;;;;;5054728;28;20028;-78
2023/01/02 10:41:48;;;;;;;23.20;17.20;;;14.80;90.20;;;;;;5071023;28;20060;-79
2023/01/02 10:44:38;;;;;;;34.38;20.40;;;14.80;90.20;;;;;;5072467;28;20058;-80
2023/01/02 10:47:19;;;;;;;25.92;17.88;;;14.80;90.10;;;;;;5072066;28;20376;-80
2023/01/02 10:49:46;;;;;;;25.30;18.65;;;14.80;90.20;;;;;;5055047;28;20476;-79
2023/01/02 10:52:28;;;;;;;29.10;18.05;;;14.80;90.10;;;;;;5054823;28;20036;-79
2023/01/02 10:54:57;;;;;;;24.23;18.45;;;14.80;89.80;;;;;;5054741;28;20044;-79
2023/01/02 10:57:37;;;;;;;22.20;17.10;;;14.90;90.20;;;;;;5054287;28;20024;-78
2023/01/02 11:00:04;;;;;;;25.33;18.80;;;14.90;89.80;;;;;;5072109;28;20036;-80
2023/01/02 11:02:37;;;;;;;34.90;19.35;;;15.00;90.00;;;;;;5054258;28;20044;-79
2023/01/02 11:05:04;;;;;;;27.20;19.27;;;15.10;90.10;;;;;;5054119;28;20036;-79
2023/01/02 11:07:36;;;;;;;30.10;19.08;;;15.10;90.00;;;;;;5055057;28;20035;-80
2023/01/02 11:10:04;;;;;;;23.10;17.25;;;15.10;90.00;;;;;;5055400;28;20039;-80
2023/01/02 11:12:31;;;;;;;30.98;18.15;;;15.20;89.90;;;;;;5058843;28;20101;-79
2023/01/02 11:15:13;;;;;;;32.47;19.40;;;15.20;89.80;;;;;;5058924;28;20114;-81
2023/01/02 11:17:42;;;;;;;26.63;18.65;;;15.30;89.60;;;;;;5078348;28;20085;-79
2023/01/02 11:20:30;;;;;;;26.77;19.00;;;15.40;89.80;;;;;;5060349;28;20035;-79
2023/01/02 11:23:00;;;;;;;25.45;17.83;;;15.40;89.40;;;;;;5061809;28;20033;-81
2023/01/02 11:25:37;;;;;;;26.40;18.38;;;15.50;89.40;;;;;;5077953;28;20114;-79
2023/01/02 11:28:04;;;;;;;26.00;18.73;;;15.50;89.40;;;;;;5061944;28;20501;-80
2023/01/02 11:31:05;;;;;;;26.52;17.95;;;15.60;89.00;;;;;;5066633;28;20033;-79
2023/01/02 11:33:36;;;;;;;26.70;17.60;;;15.70;88.60;;;;;;5058877;28;20029;-79
2023/01/02 11:36:04;;;;;;;25.95;18.25;;;15.70;88.90;;;;;;5076362;28;20040;-77
2023/01/02 11:38:44;;;;;;;27.30;18.70;;;15.80;88.40;;;;;;5075913;28;20040;-80
2023/01/02 11:44:32;;;;;;;26.20;19.08;;;15.90;88.50;;;;;;5075772;28;20087;-80
2023/01/02 11:46:59;;;;;;;30.20;18.73;;;15.90;88.10;;;;;;5058010;28;20028;-81
2023/01/02 11:49:32;;;;;;;27.50;18.05;;;15.90;88.20;;;;;;5076810;28;20032;-79
2023/01/02 11:52:02;;;;;;;26.35;19.17;;;16.00;88.40;;;;;;5058442;28;20470;-79
2023/01/02 11:54:48;;;;;;;29.67;19.58;;;16.00;88.10;;;;;;5058736;28;20071;-79
2023/01/02 11:57:28;;;;;;;26.20;17.73;;;16.10;87.80;;;;;;5075522;28;20416;-78
2023/01/02 11:59:56;;;;;;;29.30;18.65;;;16.20;88.10;;;;;;5058086;28;20032;-81
2023/01/02 12:02:41;;;;;;;27.63;18.58;;;16.20;87.50;;;;;;5076342;28;20043;-81
2023/01/02 12:05:13;;;;;;;28.42;19.88;;;16.20;87.10;;;;;;5058658;28;20033;-81
2023/01/02 12:07:46;;;;;;;23.73;17.65;;;16.20;86.30;;;;;;5074811;28;20058;-80
2023/01/02 12:10:33;;;;;;;18.83;13.03;;;16.20;87.20;;;;;;5075639;28;20116;-82
2023/01/02 12:13:30;;;;;;;29.20;18.80;;;16.20;87.20;;;;;;5057828;28;20270;-80
2023/01/02 12:16:01;;;;;;;28.23;19.85;;;16.40;87.20;;;;;;5057763;28;20502;-79
2023/01/02 12:19:00;;;;;;;34.13;20.48;;;16.40;87.00;;;;;;5075501;28;20032;-80
2023/01/02 12:22:06;;;;;;;27.00;18.50;;;16.40;86.60;;;;;;5057358;28;20044;-81
2023/01/02 12:24:56;;;;;;;34.83;19.92;;;16.50;86.70;;;;;;5075017;28;20033;-80
2023/01/02 12:27:42;;;;;;;30.65;19.80;;;16.60;86.40;;;;;;5078550;28;20503;-79
2023/01/02 12:30:12;;;;;;;24.55;17.92;;;16.60;86.50;;;;;;5057182;28;20051;-79
2023/01/02 12:32:49;;;;;;;32.13;19.92;;;16.60;85.40;;;;;;5073754;28;20423;-81
2023/01/02 12:35:36;;;;;;;24.80;18.95;;;16.60;86.20;;;;;;5056818;28;20551;-80
2023/01/02 12:38:07;;;;;;;30.75;19.48;;;16.60;85.80;;;;;;5074703;28;20132;-81
2023/01/02 12:40:42;;;;;;;30.98;18.75;;;16.70;85.30;;;;;;5056825;28;20032;-81
2023/01/02 12:43:10;;;;;;;29.52;18.85;;;16.70;85.90;;;;;;5075069;28;20033;-79
2023/01/02 12:46:11;;;;;;;28.08;19.92;;;16.70;86.00;;;;;;5077096;28;20488;-80
2023/01/02 12:49:15;;;;;;;29.75;18.88;;;16.70;85.90;;;;;;5059310;28;20422;-79
2023/01/02 12:52:10;;;;;;;31.70;20.27;;;16.70;85.60;;;;;;5033891;28;20071;-80
2023/01/02 12:54:54;;;;;;;29.55;18.40;;;16.70;85.70;;;;;;5074381;28;20401;-80